Bruck an der Leitha, Austria
Current Conditions -  °F | °C
As of 4:50 AM on Saturday 20 Dec 2014 (Local Time) from LOWW Reporting Station
Scattered Clouds Scattered Clouds  
Wind Chill: 43°   Ceiling: Unl
Heat Index: 48°   Visibility: 6mi
Dew Point: 41°   Wind: 14mph
Humidity: 76%   Direction: 280°W
Pressure: 30.06"   Gusts: NA
Location:  48.02°N, 16.78°E
Report Text: LOWW 200350Z 28012KT 9999 SCT049 09/05 Q1018 NOSIG
Loading
Personal Weather Stations






























Interactive Weather Map New forecast layout! Learn more

10-Day Weather Forecast

Advertisements
Track Severe Weather on mobile